WZZ24K EPKK-EPWA
Flight info
| Callsign | WZZ24K |
|---|---|
| Flight time | 0h 27m |
| Altitude | 21000 |
| Route | POBOK M985 KOTEK M866 LOGDA |
| Aircraft | A20N/M-SDE2E3FGHIRWXY/LB1 |
Departure
| Time | 2026-05-05 18:41 |
|---|---|
| Airport | Kraków John Paul II International Airport (EPKK) |
Arrival
| Time | 2026-05-05 19:08 |
|---|---|
| Airport | Warsaw Chopin Airport (EPWA) |
| Time | Latitude | Longitude | Altitude | Speed | Heading |
|---|---|---|---|---|---|
| 2026-05-05 18:31 | 50.07498 | 19.80275 | 790 ft | 0 kts | 168° |
| 2026-05-05 18:36 | 50.07482 | 19.80280 | 789 ft | 7 kts | 168° |
| 2026-05-05 18:36 | 50.07448 | 19.80350 | 789 ft | 10 kts | 70° |
| 2026-05-05 18:36 | 50.07528 | 19.80408 | 789 ft | 18 kts | 18° |
| 2026-05-05 18:37 | 50.07662 | 19.80408 | 789 ft | 21 kts | 346° |
| 2026-05-05 18:37 | 50.07812 | 19.80347 | 789 ft | 22 kts | 347° |
| 2026-05-05 18:37 | 50.07829 | 19.80342 | 789 ft | 0 kts | 347° |
| 2026-05-05 18:39 | 50.07831 | 19.80341 | 789 ft | 2 kts | 347° |
| 2026-05-05 18:39 | 50.07882 | 19.80323 | 789 ft | 14 kts | 347° |
| 2026-05-05 18:39 | 50.08005 | 19.80258 | 789 ft | 20 kts | 304° |
| 2026-05-05 18:39 | 50.07992 | 19.80043 | 789 ft | 21 kts | 256° |
| 2026-05-05 18:40 | 50.07984 | 19.79984 | 789 ft | 0 kts | 258° |
| 2026-05-05 18:40 | 50.07975 | 19.79918 | 788 ft | 34 kts | 257° |
| 2026-05-05 18:41 | 50.07794 | 19.78629 | 790 ft | 142 kts | 257° |
| 2026-05-05 18:41 | 50.07633 | 19.77519 | 979 ft | 164 kts | 257° |
| 2026-05-05 18:41 | 50.07396 | 19.75771 | 1822 ft | 164 kts | 256° |
| 2026-05-05 18:41 | 50.07180 | 19.74076 | 2692 ft | 159 kts | 253° |
| 2026-05-05 18:42 | 50.06927 | 19.72297 | 3204 ft | 176 kts | 252° |
| 2026-05-05 18:42 | 50.06621 | 19.70383 | 3974 ft | 186 kts | 251° |
| 2026-05-05 18:42 | 50.06321 | 19.68419 | 4925 ft | 193 kts | 256° |
| 2026-05-05 18:42 | 50.06272 | 19.66278 | 5950 ft | 203 kts | 279° |
| 2026-05-05 18:43 | 50.07114 | 19.64400 | 6841 ft | 232 kts | 317° |
| 2026-05-05 18:43 | 50.08665 | 19.63329 | 7367 ft | 263 kts | 347° |
| 2026-05-05 18:43 | 50.10592 | 19.63503 | 7832 ft | 291 kts | 16° |
| 2026-05-05 18:43 | 50.12404 | 19.65083 | 8425 ft | 306 kts | 43° |
| 2026-05-05 18:44 | 50.13817 | 19.67536 | 8737 ft | 308 kts | 53° |
| 2026-05-05 18:44 | 50.15181 | 19.70117 | 8831 ft | 309 kts | 49° |
| 2026-05-05 18:44 | 50.16684 | 19.72526 | 9162 ft | 312 kts | 44° |
| 2026-05-05 18:44 | 50.18305 | 19.74729 | 10088 ft | 311 kts | 40° |
| 2026-05-05 18:45 | 50.20067 | 19.76917 | 10642 ft | 331 kts | 38° |
| 2026-05-05 18:45 | 50.21951 | 19.79146 | 10941 ft | 355 kts | 37° |
| 2026-05-05 18:45 | 50.23972 | 19.81491 | 11544 ft | 365 kts | 37° |
| 2026-05-05 18:45 | 50.26028 | 19.83872 | 12397 ft | 369 kts | 37° |
| 2026-05-05 18:46 | 50.28103 | 19.86283 | 13202 ft | 374 kts | 38° |
| 2026-05-05 18:46 | 50.30183 | 19.88707 | 13953 ft | 379 kts | 38° |
| 2026-05-05 18:46 | 50.32317 | 19.91204 | 14704 ft | 382 kts | 38° |
| 2026-05-05 18:46 | 50.34468 | 19.93726 | 15440 ft | 386 kts | 38° |
| 2026-05-05 18:47 | 50.36603 | 19.96232 | 16133 ft | 390 kts | 38° |
| 2026-05-05 18:47 | 50.38806 | 19.98824 | 16649 ft | 395 kts | 38° |
| 2026-05-05 18:47 | 50.40991 | 20.01396 | 16906 ft | 399 kts | 38° |
| 2026-05-05 18:47 | 50.43299 | 20.03853 | 17638 ft | 401 kts | 29° |
| 2026-05-05 18:48 | 50.45827 | 20.05815 | 18316 ft | 405 kts | 24° |
| 2026-05-05 18:48 | 50.48379 | 20.07597 | 18975 ft | 406 kts | 24° |
| 2026-05-05 18:48 | 50.50971 | 20.09419 | 19651 ft | 407 kts | 24° |
| 2026-05-05 18:48 | 50.53554 | 20.11297 | 20321 ft | 409 kts | 25° |
| 2026-05-05 18:49 | 50.56146 | 20.13230 | 20679 ft | 412 kts | 25° |
| 2026-05-05 18:49 | 50.58709 | 20.15174 | 20801 ft | 412 kts | 25° |
| 2026-05-05 18:49 | 50.61306 | 20.17120 | 20819 ft | 412 kts | 23° |
| 2026-05-05 18:49 | 50.63963 | 20.18866 | 20825 ft | 412 kts | 21° |
| 2026-05-05 18:50 | 50.66603 | 20.20505 | 20807 ft | 411 kts | 20° |
| 2026-05-05 18:50 | 50.69276 | 20.22165 | 20810 ft | 411 kts | 21° |
| 2026-05-05 18:50 | 50.71918 | 20.23831 | 20820 ft | 411 kts | 21° |
| 2026-05-05 18:50 | 50.74572 | 20.25528 | 20821 ft | 411 kts | 21° |
| 2026-05-05 18:51 | 50.77242 | 20.27249 | 20803 ft | 411 kts | 21° |
| 2026-05-05 18:51 | 50.79866 | 20.28948 | 20812 ft | 411 kts | 21° |
| 2026-05-05 18:51 | 50.82526 | 20.30675 | 20816 ft | 411 kts | 21° |
| 2026-05-05 18:51 | 50.85157 | 20.32386 | 20814 ft | 410 kts | 21° |
| 2026-05-05 18:52 | 50.87778 | 20.34092 | 20819 ft | 411 kts | 21° |
| 2026-05-05 18:52 | 50.90437 | 20.35824 | 20804 ft | 410 kts | 21° |
| 2026-05-05 18:52 | 50.93065 | 20.37537 | 20810 ft | 410 kts | 21° |
| 2026-05-05 18:52 | 50.95712 | 20.39265 | 20751 ft | 408 kts | 21° |
| 2026-05-05 18:53 | 50.98328 | 20.40975 | 20403 ft | 407 kts | 21° |
| 2026-05-05 18:53 | 51.00957 | 20.42696 | 19880 ft | 406 kts | 21° |
| 2026-05-05 18:53 | 51.03544 | 20.44391 | 19292 ft | 405 kts | 21° |
| 2026-05-05 18:53 | 51.06153 | 20.46103 | 18722 ft | 404 kts | 21° |
| 2026-05-05 18:54 | 51.08725 | 20.47792 | 18153 ft | 402 kts | 21° |
| 2026-05-05 18:54 | 51.11319 | 20.49498 | 17567 ft | 400 kts | 21° |
| 2026-05-05 18:54 | 51.13862 | 20.51172 | 17047 ft | 395 kts | 21° |
| 2026-05-05 18:54 | 51.16412 | 20.52853 | 16511 ft | 392 kts | 21° |
| 2026-05-05 18:55 | 51.18903 | 20.54498 | 15993 ft | 389 kts | 21° |
| 2026-05-05 18:55 | 51.21397 | 20.56146 | 15474 ft | 385 kts | 21° |
| 2026-05-05 18:55 | 51.23852 | 20.57769 | 14968 ft | 382 kts | 21° |
| 2026-05-05 18:55 | 51.26310 | 20.59396 | 14466 ft | 380 kts | 21° |
| 2026-05-05 18:56 | 51.28752 | 20.61016 | 13966 ft | 377 kts | 21° |
| 2026-05-05 18:56 | 51.31140 | 20.62600 | 13456 ft | 374 kts | 21° |
| 2026-05-05 18:56 | 51.33553 | 20.64204 | 12922 ft | 371 kts | 21° |
| 2026-05-05 18:56 | 51.35936 | 20.65789 | 12397 ft | 368 kts | 21° |
| 2026-05-05 18:57 | 51.38275 | 20.67347 | 11889 ft | 366 kts | 21° |
| 2026-05-05 18:57 | 51.40632 | 20.68920 | 11371 ft | 363 kts | 21° |
| 2026-05-05 18:57 | 51.42938 | 20.70459 | 10869 ft | 360 kts | 21° |
| 2026-05-05 18:57 | 51.45254 | 20.72007 | 10365 ft | 358 kts | 21° |
| 2026-05-05 18:58 | 51.47541 | 20.73538 | 10112 ft | 348 kts | 21° |
| 2026-05-05 18:58 | 51.49718 | 20.74997 | 9977 ft | 335 kts | 21° |
| 2026-05-05 18:58 | 51.51816 | 20.76406 | 9859 ft | 322 kts | 21° |
| 2026-05-05 18:58 | 51.53850 | 20.77772 | 9725 ft | 310 kts | 21° |
| 2026-05-05 18:59 | 51.55819 | 20.79094 | 9346 ft | 307 kts | 21° |
| 2026-05-05 18:59 | 51.57796 | 20.80421 | 8919 ft | 306 kts | 21° |
| 2026-05-05 18:59 | 51.59746 | 20.81733 | 8512 ft | 305 kts | 21° |
| 2026-05-05 18:59 | 51.61710 | 20.83055 | 8105 ft | 304 kts | 21° |
| 2026-05-05 19:00 | 51.63639 | 20.84356 | 7709 ft | 302 kts | 21° |
| 2026-05-05 19:00 | 51.65584 | 20.85668 | 7330 ft | 301 kts | 21° |
| 2026-05-05 19:00 | 51.67509 | 20.86969 | 7077 ft | 296 kts | 21° |
| 2026-05-05 19:00 | 51.69414 | 20.88256 | 7021 ft | 301 kts | 21° |
| 2026-05-05 19:01 | 51.71354 | 20.89569 | 6974 ft | 299 kts | 21° |
| 2026-05-05 19:01 | 51.73251 | 20.90854 | 6724 ft | 298 kts | 21° |
| 2026-05-05 19:01 | 51.75172 | 20.92156 | 6371 ft | 297 kts | 21° |
| 2026-05-05 19:01 | 51.77060 | 20.93438 | 6010 ft | 296 kts | 21° |
| 2026-05-05 19:02 | 51.78974 | 20.94738 | 5623 ft | 295 kts | 21° |
| 2026-05-05 19:02 | 51.80844 | 20.96010 | 5247 ft | 293 kts | 21° |
| 2026-05-05 19:02 | 51.82718 | 20.97285 | 4912 ft | 291 kts | 21° |
| 2026-05-05 19:02 | 51.84590 | 20.98559 | 4536 ft | 290 kts | 21° |
| 2026-05-05 19:03 | 51.86424 | 20.99808 | 4187 ft | 288 kts | 21° |
| 2026-05-05 19:03 | 51.88279 | 21.01074 | 3817 ft | 287 kts | 21° |
| 2026-05-05 19:03 | 51.90121 | 21.02331 | 3441 ft | 286 kts | 21° |
| 2026-05-05 19:03 | 51.91934 | 21.03569 | 3121 ft | 283 kts | 21° |
| 2026-05-05 19:04 | 51.93759 | 21.04817 | 3020 ft | 287 kts | 21° |
| 2026-05-05 19:04 | 51.95573 | 21.06058 | 3008 ft | 285 kts | 22° |
| 2026-05-05 19:04 | 51.97394 | 21.07307 | 3005 ft | 276 kts | 21° |
| 2026-05-05 19:04 | 51.99124 | 21.08494 | 3003 ft | 261 kts | 21° |
| 2026-05-05 19:05 | 52.00800 | 21.09168 | 3003 ft | 242 kts | 358° |
| 2026-05-05 19:05 | 52.02444 | 21.08753 | 3010 ft | 238 kts | 338° |
| 2026-05-05 19:05 | 52.03928 | 21.07750 | 2904 ft | 226 kts | 329° |
| 2026-05-05 19:05 | 52.05315 | 21.06554 | 2600 ft | 224 kts | 327° |
| 2026-05-05 19:06 | 52.06677 | 21.05367 | 2311 ft | 224 kts | 328° |
| 2026-05-05 19:06 | 52.08029 | 21.04185 | 2044 ft | 215 kts | 328° |
| 2026-05-05 19:06 | 52.09313 | 21.03066 | 1741 ft | 205 kts | 328° |
| 2026-05-05 19:06 | 52.10521 | 21.02012 | 1476 ft | 187 kts | 328° |
| 2026-05-05 19:07 | 52.11615 | 21.01055 | 1259 ft | 170 kts | 329° |
| 2026-05-05 19:07 | 52.12609 | 21.00186 | 1025 ft | 153 kts | 330° |
| 2026-05-05 19:07 | 52.13512 | 20.99394 | 826 ft | 141 kts | 331° |
| 2026-05-05 19:07 | 52.14364 | 20.98650 | 648 ft | 139 kts | 332° |
| 2026-05-05 19:08 | 52.15208 | 20.97910 | 432 ft | 138 kts | 331° |
| 2026-05-05 19:08 | 52.16039 | 20.97194 | 340 ft | 128 kts | 332° |
| 2026-05-05 19:08 | 52.16568 | 20.96729 | 338 ft | 43 kts | 330° |
| 2026-05-05 19:08 | 52.16675 | 20.96633 | 336 ft | 31 kts | 333° |
| 2026-05-05 19:09 | 52.16987 | 20.96529 | 332 ft | 32 kts | 358° |
| 2026-05-05 19:09 | 52.17089 | 20.96556 | 332 ft | 2 kts | 60° |
| 2026-05-05 19:09 | 52.17142 | 20.96604 | 333 ft | 12 kts | 350° |
| 2026-05-05 19:09 | 52.17229 | 20.96542 | 334 ft | 15 kts | 333° |
| 2026-05-05 19:10 | 52.17333 | 20.96451 | 335 ft | 18 kts | 331° |
| 2026-05-05 19:10 | 52.17439 | 20.96421 | 332 ft | 16 kts | 36° |
| 2026-05-05 19:10 | 52.17452 | 20.96576 | 331 ft | 15 kts | 133° |
| 2026-05-05 19:10 | 52.17409 | 20.96598 | 336 ft | 0 kts | 212° |
| 2026-05-05 19:11 | 52.17408 | 20.96598 | 336 ft | 0 kts | 207° |
| 2026-05-05 19:11 | 52.17404 | 20.96597 | 336 ft | 5 kts | 198° |